Time;durP1;ratioP1;P1;durP2;ratioP2;P2;SDS_P1;SDS_P2;PMS_P1;PMS_P2;Temp;Humidity;BMP_temperature;BMP_pressure;BME280_temperature;BME280_humidity;BME280_pressure;Samples;Min_cycle;Max_cycle;Signal;HPM_P1;HPM_P2
2022/10/15 00:02:19;;;;;;;1.57;0.50;;;15.90;99.90;;;;;;5016715;28;20040;-72
2022/10/15 00:04:45;;;;;;;1.20;0.40;;;15.90;99.90;;;;;;4999019;28;20380;-72
2022/10/15 00:07:10;;;;;;;0.43;0.40;;;15.90;99.90;;;;;;4999578;28;20550;-72
2022/10/15 00:09:36;;;;;;;1.57;0.40;;;15.90;99.90;;;;;;4999161;28;20026;-72
2022/10/15 00:12:01;;;;;;;0.80;0.43;;;15.90;99.90;;;;;;4999115;28;20026;-72
2022/10/15 00:14:28;;;;;;;0.57;0.57;;;16.00;99.90;;;;;;4998965;28;20461;-72
2022/10/15 00:16:53;;;;;;;;;;;15.90;99.90;;;;;;5017060;28;20026;-72
2022/10/15 00:19:19;;;;;;;2.33;0.45;;;15.90;99.90;;;;;;5017184;28;19916;-72
2022/10/15 00:21:44;;;;;;;2.58;0.40;;;16.00;99.90;;;;;;5016589;28;20057;-72
2022/10/15 00:24:10;;;;;;;0.60;0.40;;;16.00;99.90;;;;;;5013884;28;20029;-72
2022/10/15 00:26:36;;;;;;;1.83;0.50;;;16.00;99.90;;;;;;5036667;28;20363;-71
2022/10/15 00:29:02;;;;;;;0.30;0.30;;;15.90;99.90;;;;;;5036040;28;20072;-71
2022/10/15 00:31:30;;;;;;;0.63;0.45;;;15.90;99.90;;;;;;5036003;28;20030;-71
2022/10/15 00:33:58;;;;;;;0.88;0.55;;;16.00;99.90;;;;;;5035599;28;20035;-72
2022/10/15 00:36:26;;;;;;;0.40;0.30;;;16.00;99.90;;;;;;5018109;28;20018;-71
2022/10/15 00:38:52;;;;;;;2.17;0.30;;;16.00;99.90;;;;;;5035050;28;20478;-71
2022/10/15 00:41:27;;;;;;;0.80;0.40;;;16.00;99.90;;;;;;5035702;28;20037;-72
2022/10/15 00:44:02;;;;;;;1.50;0.50;;;16.00;99.90;;;;;;5018239;28;20116;-72
2022/10/15 00:46:30;;;;;;;4.93;0.50;;;16.00;99.90;;;;;;5017817;28;20025;-72
2022/10/15 00:49:17;;;;;;;2.75;0.50;;;16.00;99.90;;;;;;5017710;28;20017;-72
2022/10/15 00:51:51;;;;;;;1.02;0.40;;;16.00;99.90;;;;;;5017865;28;20041;-72
2022/10/15 00:54:19;;;;;;;0.57;0.50;;;16.00;99.90;;;;;;5035720;28;20113;-72
2022/10/15 00:56:45;;;;;;;1.58;0.30;;;15.90;99.90;;;;;;5035609;28;20021;-72
2022/10/15 00:59:12;;;;;;;;;;;15.90;99.90;;;;;;5036111;28;20017;-72
2022/10/15 01:01:38;;;;;;;1.40;0.50;;;15.90;99.90;;;;;;5035701;28;19963;-71
2022/10/15 01:04:06;;;;;;;2.20;0.47;;;16.00;99.90;;;;;;5035542;28;20475;-71
2022/10/15 01:06:31;;;;;;;1.73;0.55;;;16.00;99.90;;;;;;5017663;28;20037;-71
2022/10/15 01:08:58;;;;;;;2.42;0.50;;;16.00;99.90;;;;;;5035440;28;20072;-71
2022/10/15 01:11:36;;;;;;;0.75;0.50;;;15.90;99.90;;;;;;5035440;28;20052;-71
2022/10/15 01:14:32;;;;;;;1.40;0.43;;;15.90;99.90;;;;;;5034139;28;20120;-70
2022/10/15 01:17:26;;;;;;;0.93;0.50;;;16.00;99.90;;;;;;5035539;28;20385;-70
2022/10/15 01:20:14;;;;;;;0.60;0.50;;;16.00;99.90;;;;;;5017267;28;20021;-70
2022/10/15 01:23:00;;;;;;;1.73;0.50;;;16.00;99.90;;;;;;5034074;28;20026;-71
2022/10/15 01:25:41;;;;;;;1.08;0.55;;;16.00;99.90;;;;;;5034353;28;20072;-70
2022/10/15 01:28:29;;;;;;;1.20;0.52;;;16.00;99.90;;;;;;5035732;28;20029;-70
2022/10/15 01:31:01;;;;;;;1.60;0.50;;;16.00;99.90;;;;;;5035232;28;20092;-71
2022/10/15 01:33:43;;;;;;;2.28;0.60;;;16.00;99.90;;;;;;5035195;28;20025;-71
2022/10/15 01:36:43;;;;;;;2.80;0.50;;;16.00;99.90;;;;;;5033746;28;20172;-71
2022/10/15 01:39:24;;;;;;;1.08;0.50;;;16.10;99.90;;;;;;5034714;28;20414;-71
2022/10/15 01:41:59;;;;;;;1.45;0.50;;;16.10;99.90;;;;;;5016620;28;20060;-71
2022/10/15 01:44:35;;;;;;;2.38;0.40;;;16.10;99.90;;;;;;5017239;28;20030;-71
2022/10/15 01:47:16;;;;;;;0.73;0.38;;;16.10;99.90;;;;;;5016564;28;20026;-71
2022/10/15 01:49:44;;;;;;;0.73;0.50;;;16.10;99.90;;;;;;5033998;28;20026;-71
2022/10/15 01:52:19;;;;;;;1.55;0.43;;;16.20;99.90;;;;;;5016255;28;20037;-71
2022/10/15 01:54:46;;;;;;;0.40;0.40;;;16.10;99.90;;;;;;5034101;28;20505;-71
2022/10/15 01:57:13;;;;;;;1.27;0.40;;;16.10;99.90;;;;;;5033103;28;20490;-71
2022/10/15 01:59:40;;;;;;;0.93;0.40;;;16.10;99.90;;;;;;5034001;28;20022;-71
2022/10/15 02:02:06;;;;;;;1.00;0.50;;;16.20;99.90;;;;;;5033855;28;20528;-71
2022/10/15 02:04:31;;;;;;;3.50;0.40;;;16.20;99.90;;;;;;5033941;28;20108;-70
2022/10/15 02:07:12;;;;;;;0.37;0.30;;;16.20;99.90;;;;;;5032719;28;20112;-70
2022/10/15 02:09:40;;;;;;;1.10;0.63;;;16.20;99.90;;;;;;5033827;28;20419;-71
2022/10/15 02:12:06;;;;;;;1.35;0.60;;;16.20;99.90;;;;;;5033312;28;20026;-71
2022/10/15 02:15:02;;;;;;;2.20;0.60;;;16.20;99.90;;;;;;5034104;28;20481;-71
2022/10/15 02:17:37;;;;;;;0.93;0.50;;;16.20;99.90;;;;;;5014388;28;20306;-71
2022/10/15 02:20:13;;;;;;;1.83;0.65;;;16.20;99.90;;;;;;5015677;28;20037;-71
2022/10/15 02:22:47;;;;;;;2.42;0.50;;;16.20;99.90;;;;;;5015839;28;20112;-71
2022/10/15 02:25:18;;;;;;;0.93;0.52;;;16.20;99.90;;;;;;5017091;28;20125;-71
2022/10/15 02:27:48;;;;;;;1.83;0.60;;;16.10;99.90;;;;;;5034256;28;20363;-71
2022/10/15 02:30:15;;;;;;;3.80;0.70;;;16.20;99.90;;;;;;5016011;28;20053;-71
2022/10/15 02:32:43;;;;;;;1.65;0.50;;;16.20;99.90;;;;;;5015487;28;20021;-71
2022/10/15 02:35:10;;;;;;;1.02;0.73;;;16.20;99.90;;;;;;5015428;28;20116;-71
2022/10/15 02:37:38;;;;;;;4.43;2.08;;;16.20;99.90;;;;;;5016082;28;20026;-71
2022/10/15 02:40:04;;;;;;;1.15;0.80;;;16.20;99.90;;;;;;5017779;28;20470;-71
2022/10/15 02:42:30;;;;;;;3.50;0.80;;;16.20;99.90;;;;;;5021496;28;20025;-70
2022/10/15 02:44:55;;;;;;;1.08;0.50;;;16.20;99.90;;;;;;5033717;28;20033;-69
2022/10/15 02:47:21;;;;;;;3.37;0.50;;;16.30;99.90;;;;;;5033936;28;20067;-71
2022/10/15 02:49:47;;;;;;;3.03;0.80;;;16.20;99.90;;;;;;5033368;28;20152;-70
2022/10/15 02:52:12;;;;;;;4.03;0.80;;;16.30;99.90;;;;;;5032117;28;20033;-70
2022/10/15 02:54:37;;;;;;;3.43;1.20;;;16.30;99.90;;;;;;5031770;28;20021;-71
2022/10/15 02:57:03;;;;;;;2.93;1.20;;;16.30;99.90;;;;;;5015385;28;20022;-71
2022/10/15 02:59:29;;;;;;;3.03;1.30;;;16.30;99.90;;;;;;5031839;28;20052;-70
2022/10/15 03:01:54;;;;;;;2.20;1.03;;;16.30;99.90;;;;;;5032523;28;20298;-70
2022/10/15 03:04:20;;;;;;;3.17;0.90;;;16.30;99.90;;;;;;5032816;28;20060;-71
2022/10/15 03:06:45;;;;;;;3.15;1.30;;;16.30;99.90;;;;;;5015294;28;20040;-72
2022/10/15 03:09:11;;;;;;;1.47;0.77;;;16.30;99.90;;;;;;5033381;28;20490;-70
2022/10/15 03:11:37;;;;;;;2.60;0.50;;;16.30;99.90;;;;;;5015261;28;20035;-71
2022/10/15 03:14:03;;;;;;;;;;;16.30;99.90;;;;;;5015619;28;20375;-70
2022/10/15 03:16:28;;;;;;;3.75;0.50;;;16.30;99.90;;;;;;5031953;28;19948;-71
2022/10/15 03:18:54;;;;;;;0.50;0.50;;;16.30;99.90;;;;;;5033207;28;20026;-72
2022/10/15 03:21:20;;;;;;;1.75;0.50;;;16.30;99.90;;;;;;5032942;28;20018;-72
2022/10/15 03:23:45;;;;;;;1.70;0.60;;;16.30;99.90;;;;;;5033103;28;20037;-71
2022/10/15 03:26:11;;;;;;;0.43;0.40;;;16.40;99.90;;;;;;5032866;28;20475;-71
2022/10/15 03:28:36;;;;;;;1.47;0.50;;;16.30;99.90;;;;;;5033188;28;20748;-71
2022/10/15 03:31:02;;;;;;;0.73;0.40;;;16.30;99.90;;;;;;5015116;28;20032;-71
2022/10/15 03:33:27;;;;;;;1.47;0.57;;;16.30;99.90;;;;;;5032935;28;20026;-71
2022/10/15 03:35:53;;;;;;;2.43;0.60;;;16.30;99.90;;;;;;5015104;28;20283;-71
2022/10/15 03:38:18;;;;;;;1.63;0.65;;;16.30;99.90;;;;;;5015364;28;20108;-72
2022/10/15 03:40:45;;;;;;;1.35;0.80;;;16.30;99.90;;;;;;5015275;28;20101;-72
2022/10/15 03:43:10;;;;;;;;;;;16.30;99.90;;;;;;5033268;28;20032;-71
2022/10/15 03:45:36;;;;;;;2.38;0.50;;;16.30;99.90;;;;;;5032829;28;20274;-71
2022/10/15 03:48:01;;;;;;;2.67;0.60;;;16.30;99.90;;;;;;5015211;28;20029;-72
2022/10/15 03:50:27;;;;;;;2.83;0.80;;;16.30;99.90;;;;;;5014992;28;20106;-72
2022/10/15 03:52:53;;;;;;;0.90;0.70;;;16.30;99.90;;;;;;5015151;28;20347;-72
2022/10/15 03:55:18;;;;;;;1.33;0.70;;;16.40;99.90;;;;;;5032800;28;20025;-72
2022/10/15 03:57:44;;;;;;;1.83;0.70;;;16.30;99.90;;;;;;5032729;28;20370;-72
2022/10/15 04:00:12;;;;;;;1.90;0.70;;;16.30;99.90;;;;;;5015043;28;20493;-72
2022/10/15 04:02:38;;;;;;;1.08;0.55;;;16.30;99.90;;;;;;5015366;28;20471;-73
2022/10/15 04:05:04;;;;;;;2.30;0.60;;;16.30;99.90;;;;;;5031119;28;20030;-73
2022/10/15 04:07:29;;;;;;;1.63;0.82;;;16.30;99.90;;;;;;5032419;28;20029;-72
2022/10/15 04:09:55;;;;;;;1.10;0.57;;;16.40;99.90;;;;;;5014847;28;20021;-72
2022/10/15 04:12:20;;;;;;;4.13;0.70;;;16.30;99.90;;;;;;5014679;28;20029;-73
2022/10/15 04:14:46;;;;;;;3.60;0.60;;;16.30;99.90;;;;;;5017355;28;20064;-73
2022/10/15 04:17:11;;;;;;;1.10;0.50;;;16.30;99.90;;;;;;5018430;28;20017;-73
2022/10/15 04:19:37;;;;;;;2.13;0.73;;;16.30;99.90;;;;;;5036312;28;20410;-73
2022/10/15 04:22:03;;;;;;;0.93;0.87;;;16.30;99.90;;;;;;5036035;28;20025;-73
2022/10/15 04:24:29;;;;;;;1.02;0.70;;;16.40;99.90;;;;;;5018455;28;20272;-72
2022/10/15 04:26:54;;;;;;;4.00;0.60;;;16.30;99.90;;;;;;5018350;28;20398;-73
2022/10/15 04:29:23;;;;;;;2.83;0.60;;;16.30;99.90;;;;;;5018463;28;20313;-73
2022/10/15 04:31:48;;;;;;;2.13;0.90;;;16.30;99.90;;;;;;5035891;28;20070;-73
2022/10/15 04:34:14;;;;;;;1.97;0.57;;;16.30;99.90;;;;;;5017931;28;20026;-74
2022/10/15 04:36:39;;;;;;;2.72;0.70;;;16.30;99.90;;;;;;5035699;28;20108;-73
2022/10/15 04:39:05;;;;;;;3.43;0.70;;;16.30;99.90;;;;;;5018575;28;20029;-73
2022/10/15 04:41:31;;;;;;;1.90;0.60;;;16.30;99.90;;;;;;5018083;28;20264;-73
2022/10/15 04:43:57;;;;;;;5.55;0.95;;;16.40;99.90;;;;;;5035885;28;20145;-73
2022/10/15 04:46:23;;;;;;;;;;;16.30;99.90;;;;;;5018142;28;20091;-73
2022/10/15 04:48:49;;;;;;;0.95;0.60;;;16.40;99.90;;;;;;5017137;28;19948;-73
2022/10/15 04:51:18;;;;;;;1.75;0.52;;;16.40;99.90;;;;;;5035108;28;20037;-73
2022/10/15 04:53:43;;;;;;;0.70;0.50;;;16.40;99.90;;;;;;5017689;28;20025;-72
2022/10/15 04:56:16;;;;;;;2.47;0.77;;;16.30;99.90;;;;;;5035349;28;20037;-73
2022/10/15 04:58:43;;;;;;;2.08;0.75;;;16.30;99.90;;;;;;5036967;28;20024;-72
2022/10/15 05:01:11;;;;;;;2.47;0.70;;;16.30;99.90;;;;;;5020870;28;20026;-73
2022/10/15 05:03:38;;;;;;;2.25;0.70;;;16.30;99.90;;;;;;5035089;28;20108;-72
2022/10/15 05:06:09;;;;;;;3.53;0.80;;;16.30;99.90;;;;;;5017422;28;20032;-72
2022/10/15 05:08:35;;;;;;;1.40;1.15;;;16.30;99.90;;;;;;5035965;28;20053;-73
2022/10/15 05:11:06;;;;;;;1.63;0.68;;;16.20;99.90;;;;;;5035174;28;20028;-73
2022/10/15 05:13:32;;;;;;;3.05;0.95;;;16.30;99.90;;;;;;5017600;28;20037;-74
2022/10/15 05:16:12;;;;;;;1.05;0.70;;;16.20;99.90;;;;;;5035458;28;20018;-73
2022/10/15 05:18:38;;;;;;;3.80;0.90;;;16.30;99.90;;;;;;5017770;28;20021;-73
2022/10/15 05:21:04;;;;;;;;;;;16.20;99.90;;;;;;5035301;28;20382;-73
2022/10/15 05:23:30;;;;;;;1.70;0.70;;;16.30;99.90;;;;;;5035075;28;19912;-73
2022/10/15 05:25:59;;;;;;;1.75;0.70;;;16.20;99.90;;;;;;5034468;28;20493;-73
2022/10/15 05:28:25;;;;;;;1.48;0.70;;;16.30;99.90;;;;;;5035073;28;20037;-72
2022/10/15 05:30:50;;;;;;;4.93;2.33;;;16.30;99.90;;;;;;5016849;28;20033;-73
2022/10/15 05:33:16;;;;;;;1.67;0.82;;;16.30;99.90;;;;;;5016642;28;20030;-72
2022/10/15 05:35:41;;;;;;;4.37;0.70;;;16.20;99.90;;;;;;5034515;28;20459;-73
2022/10/15 05:38:07;;;;;;;2.75;0.80;;;16.20;99.90;;;;;;5035366;28;20501;-72
2022/10/15 05:40:32;;;;;;;3.30;0.87;;;16.30;99.90;;;;;;5035119;28;20037;-72
2022/10/15 05:42:58;;;;;;;3.15;0.90;;;16.30;99.90;;;;;;5016568;28;20053;-71
2022/10/15 05:45:24;;;;;;;1.90;1.00;;;16.30;99.90;;;;;;5016991;28;20486;-72
2022/10/15 05:47:56;;;;;;;2.63;1.00;;;16.30;99.90;;;;;;5035538;28;20029;-72
2022/10/15 05:50:22;;;;;;;1.42;0.73;;;16.20;99.90;;;;;;5037250;28;20033;-72
2022/10/15 05:52:48;;;;;;;2.47;0.95;;;16.20;99.90;;;;;;5038046;28;20033;-73
2022/10/15 05:55:14;;;;;;;1.05;0.80;;;16.20;99.90;;;;;;5035049;28;20025;-70
2022/10/15 05:57:40;;;;;;;2.28;1.55;;;16.30;99.90;;;;;;5034314;28;20030;-72
2022/10/15 06:00:06;;;;;;;1.92;1.10;;;16.20;99.90;;;;;;5017653;28;20064;-73
2022/10/15 06:02:32;;;;;;;1.65;1.30;;;16.20;99.90;;;;;;5017010;28;20021;-72
2022/10/15 06:04:58;;;;;;;2.80;1.10;;;16.20;99.90;;;;;;5017411;28;20029;-73
2022/10/15 06:07:23;;;;;;;1.57;1.03;;;16.20;99.90;;;;;;5018366;28;20087;-73
2022/10/15 06:09:49;;;;;;;3.23;1.00;;;16.20;99.90;;;;;;5034080;28;20300;-72
2022/10/15 06:12:14;;;;;;;2.50;1.13;;;16.20;99.90;;;;;;5034154;28;20067;-72
2022/10/15 06:14:40;;;;;;;2.53;1.40;;;16.20;99.90;;;;;;5033867;28;20061;-71
2022/10/15 06:17:05;;;;;;;3.20;1.10;;;16.20;99.90;;;;;;5034097;28;20388;-72
2022/10/15 06:19:31;;;;;;;3.07;0.80;;;16.20;99.90;;;;;;5034374;28;20257;-73
2022/10/15 06:21:56;;;;;;;1.23;0.90;;;16.10;99.90;;;;;;5016160;28;20474;-71
2022/10/15 06:24:22;;;;;;;3.08;1.08;;;16.10;99.90;;;;;;5034121;28;20317;-71
2022/10/15 06:26:48;;;;;;;2.97;1.20;;;16.10;99.90;;;;;;5033961;28;20026;-71
2022/10/15 06:29:13;;;;;;;3.03;1.13;;;16.10;99.90;;;;;;5033971;28;20846;-71
2022/10/15 06:31:39;;;;;;;1.93;1.07;;;16.20;99.90;;;;;;5016915;28;20044;-73
2022/10/15 06:34:04;;;;;;;5.20;1.67;;;16.20;99.90;;;;;;5033409;28;20029;-71
2022/10/15 06:36:30;;;;;;;2.23;0.83;;;16.20;99.90;;;;;;5016258;28;20022;-71
2022/10/15 06:38:55;;;;;;;4.15;1.17;;;16.10;99.90;;;;;;5016048;28;20299;-71
2022/10/15 06:41:21;;;;;;;1.80;1.40;;;16.10;99.90;;;;;;5020779;28;20025;-72
2022/10/15 06:43:49;;;;;;;2.47;1.13;;;16.10;99.90;;;;;;5043303;28;20034;-71
2022/10/15 06:46:16;;;;;;;3.35;1.00;;;16.10;99.90;;;;;;5028950;28;20272;-72
2022/10/15 06:48:41;;;;;;;4.05;1.40;;;16.10;99.90;;;;;;5048195;28;20052;-73
2022/10/15 06:51:07;;;;;;;1.40;1.20;;;16.10;99.90;;;;;;5047406;28;20034;-71
2022/10/15 06:53:33;;;;;;;3.42;1.35;;;16.20;99.90;;;;;;5042406;28;20026;-71
2022/10/15 06:56:00;;;;;;;2.10;1.15;;;16.20;99.90;;;;;;5033425;28;20048;-70
2022/10/15 06:58:32;;;;;;;5.70;1.40;;;16.20;99.90;;;;;;5033381;28;20565;-72
2022/10/15 07:01:02;;;;;;;1.73;1.15;;;16.20;99.90;;;;;;5015438;28;20022;-71
2022/10/15 07:03:28;;;;;;;2.78;1.52;;;16.20;99.90;;;;;;5015472;28;20124;-71
2022/10/15 07:05:54;;;;;;;3.83;1.25;;;16.20;99.90;;;;;;5032834;28;20482;-71
2022/10/15 07:08:20;;;;;;;2.47;1.48;;;16.20;99.90;;;;;;5032971;28;20116;-72
2022/10/15 07:10:45;;;;;;;1.87;1.00;;;16.20;99.90;;;;;;5033119;28;20540;-71
2022/10/15 07:13:11;;;;;;;2.92;1.08;;;16.20;99.90;;;;;;5033927;28;20335;-71
2022/10/15 07:15:36;;;;;;;2.83;1.27;;;16.20;99.90;;;;;;5033351;28;20453;-71
2022/10/15 07:18:02;;;;;;;1.83;0.90;;;16.20;99.90;;;;;;5033360;28;20276;-70
2022/10/15 07:20:29;;;;;;;2.72;1.52;;;16.20;99.90;;;;;;5014483;28;20026;-71
2022/10/15 07:22:57;;;;;;;4.78;1.50;;;16.20;99.90;;;;;;5033070;28;20437;-72
2022/10/15 07:25:25;;;;;;;5.55;1.70;;;16.20;99.90;;;;;;5033102;28;20088;-72
2022/10/15 07:27:50;;;;;;;2.95;1.10;;;16.20;99.90;;;;;;5015346;28;20026;-73
2022/10/15 07:30:16;;;;;;;1.97;1.00;;;16.20;99.90;;;;;;5033779;28;20438;-72
2022/10/15 07:32:42;;;;;;;3.33;1.27;;;16.20;99.90;;;;;;5016916;28;20307;-71
2022/10/15 07:35:08;;;;;;;3.88;1.23;;;16.20;99.90;;;;;;5032860;28;20061;-71
2022/10/15 07:37:34;;;;;;;3.72;2.03;;;16.10;99.90;;;;;;5032889;28;20029;-71
2022/10/15 07:39:59;;;;;;;4.32;1.45;;;16.20;99.90;;;;;;5032588;28;20486;-70
2022/10/15 07:42:25;;;;;;;3.20;1.10;;;16.20;99.90;;;;;;5032674;28;20390;-70
2022/10/15 07:44:51;;;;;;;1.73;1.00;;;16.30;99.90;;;;;;5033281;28;20105;-71
2022/10/15 07:47:16;;;;;;;4.80;1.17;;;16.30;99.90;;;;;;5015243;28;20068;-74
2022/10/15 07:49:42;;;;;;;3.55;1.23;;;16.10;99.90;;;;;;5034705;28;20540;-69
2022/10/15 07:52:08;;;;;;;5.50;1.30;;;16.20;99.90;;;;;;5036049;28;20045;-69
2022/10/15 07:54:33;;;;;;;2.95;1.40;;;16.10;99.90;;;;;;5036742;28;20104;-70
2022/10/15 07:57:00;;;;;;;5.57;1.63;;;16.20;99.90;;;;;;5018733;28;20060;-70
2022/10/15 07:59:26;;;;;;;2.20;1.17;;;16.20;99.90;;;;;;5036689;28;20025;-70
2022/10/15 08:01:51;;;;;;;2.30;1.10;;;16.30;99.90;;;;;;5018454;28;20453;-70
2022/10/15 08:04:19;;;;;;;3.22;1.20;;;16.30;99.90;;;;;;5036765;28;20075;-71
2022/10/15 08:06:45;;;;;;;3.40;1.42;;;16.30;99.90;;;;;;5018381;28;20034;-72
2022/10/15 08:09:10;;;;;;;1.88;1.55;;;16.30;99.90;;;;;;5036337;28;20030;-72
2022/10/15 08:11:36;;;;;;;1.70;1.20;;;16.40;99.90;;;;;;5036176;28;20042;-72
2022/10/15 08:14:02;;;;;;;2.00;1.10;;;16.40;99.90;;;;;;5036223;28;20276;-71
2022/10/15 08:16:28;;;;;;;1.70;0.80;;;16.50;99.90;;;;;;5036183;28;20025;-71
2022/10/15 08:18:54;;;;;;;3.10;1.10;;;16.50;99.90;;;;;;5018326;28;20036;-70
2022/10/15 08:21:19;;;;;;;1.47;1.20;;;16.40;99.90;;;;;;5035780;28;20033;-71
2022/10/15 08:23:45;;;;;;;3.10;0.90;;;16.50;99.90;;;;;;5036475;28;20347;-70
2022/10/15 08:26:11;;;;;;;3.58;1.00;;;16.60;99.90;;;;;;5036357;28;20106;-72
2022/10/15 08:28:37;;;;;;;1.48;0.93;;;16.60;99.90;;;;;;5018503;28;20034;-70
2022/10/15 08:31:03;;;;;;;1.80;1.00;;;16.70;99.90;;;;;;5018058;28;20029;-69
2022/10/15 08:33:29;;;;;;;4.03;0.90;;;16.60;99.90;;;;;;5037157;28;20040;-70
2022/10/15 08:35:55;;;;;;;2.33;1.00;;;16.60;99.90;;;;;;5037040;28;20029;-72
2022/10/15 08:38:21;;;;;;;4.03;0.90;;;16.70;99.90;;;;;;5035972;28;20072;-68
2022/10/15 08:40:54;;;;;;;1.60;0.77;;;16.70;99.90;;;;;;5035796;28;20048;-68
2022/10/15 08:43:37;;;;;;;3.35;0.98;;;16.60;99.90;;;;;;5035937;28;20044;-68
2022/10/15 08:46:08;;;;;;;3.65;1.00;;;16.60;99.90;;;;;;5017913;28;20029;-68
2022/10/15 08:48:40;;;;;;;1.80;0.90;;;16.60;99.90;;;;;;5035869;28;20033;-68
2022/10/15 08:51:12;;;;;;;1.75;0.90;;;16.60;99.90;;;;;;5035313;28;20176;-69
2022/10/15 08:53:44;;;;;;;2.33;1.23;;;16.60;99.90;;;;;;5035694;28;20555;-68
2022/10/15 08:56:51;;;;;;;2.55;1.20;;;16.60;99.90;;;;;;5035309;28;20025;-68
2022/10/15 08:59:51;;;;;;;3.03;1.73;;;16.60;99.90;;;;;;4955845;29;20027;-69
2022/10/15 09:02:44;;;;;;;3.50;0.80;;;16.60;99.90;;;;;;4984794;28;20030;-69
2022/10/15 09:05:25;;;;;;;6.30;3.15;;;16.50;99.90;;;;;;5036849;28;20026;-69
2022/10/15 09:08:25;;;;;;;2.05;0.80;;;16.70;99.90;;;;;;5035633;28;20017;-67
2022/10/15 09:11:12;;;;;;;3.33;1.10;;;16.70;99.90;;;;;;5033184;28;20055;-68
2022/10/15 09:13:39;;;;;;;;;;;16.80;99.90;;;;;;5035692;28;20470;-67
2022/10/15 09:16:13;;;;;;;1.83;0.83;;;16.90;99.90;;;;;;5034701;28;19912;-67
2022/10/15 09:18:43;;;;;;;3.75;0.85;;;17.00;99.90;;;;;;5034962;28;20288;-68
2022/10/15 09:21:10;;;;;;;1.45;0.80;;;17.00;99.90;;;;;;5034736;28;20159;-68
2022/10/15 09:23:36;;;;;;;1.75;0.77;;;17.20;99.90;;;;;;5035024;28;20025;-69
2022/10/15 09:26:24;;;;;;;2.90;0.98;;;17.10;99.90;;;;;;5034912;28;20075;-67
2022/10/15 09:29:11;;;;;;;1.55;0.88;;;17.20;99.90;;;;;;5017183;28;20034;-70
2022/10/15 09:32:04;;;;;;;2.22;0.80;;;17.40;99.90;;;;;;5033345;28;20032;-69
2022/10/15 09:34:42;;;;;;;2.10;0.90;;;17.70;99.90;;;;;;4999635;28;20372;-68
2022/10/15 09:37:17;;;;;;;3.67;1.30;;;18.00;99.90;;;;;;5034378;28;20033;-67
2022/10/15 09:40:11;;;;;;;2.53;1.50;;;18.20;99.90;;;;;;5016288;28;20029;-68
2022/10/15 09:42:39;;;;;;;1.27;0.68;;;18.30;99.90;;;;;;5034320;28;20026;-68
2022/10/15 09:45:10;;;;;;;2.78;0.75;;;18.20;99.90;;;;;;5034575;28;20117;-68
2022/10/15 09:47:39;;;;;;;2.70;1.13;;;18.10;99.90;;;;;;5034188;28;20021;-68
2022/10/15 09:50:08;;;;;;;2.15;0.90;;;18.10;99.90;;;;;;5039609;28;20029;-68
2022/10/15 09:52:52;;;;;;;1.90;0.77;;;18.20;99.90;;;;;;5036279;28;20079;-71
2022/10/15 09:55:41;;;;;;;3.47;0.90;;;18.10;99.90;;;;;;5034816;28;20059;-73
2022/10/15 09:58:13;;;;;;;1.73;0.80;;;18.20;99.90;;;;;;5034404;28;20029;-70
2022/10/15 10:00:54;;;;;;;1.60;1.00;;;18.10;99.90;;;;;;5034003;28;20025;-70
2022/10/15 10:03:22;;;;;;;1.67;0.70;;;18.10;99.90;;;;;;5034086;28;20376;-69
2022/10/15 10:05:48;;;;;;;2.13;1.33;;;18.10;99.90;;;;;;5033718;28;20044;-69
2022/10/15 10:08:26;;;;;;;2.92;0.98;;;18.00;99.90;;;;;;5033963;28;20072;-69
2022/10/15 10:10:58;;;;;;;1.90;0.65;;;18.00;99.90;;;;;;5033866;28;20583;-70
2022/10/15 10:13:27;;;;;;;2.08;1.02;;;17.80;99.90;;;;;;5015962;28;20099;-70
2022/10/15 10:15:55;;;;;;;2.00;0.70;;;17.80;99.90;;;;;;5015811;28;20140;-69
2022/10/15 10:18:23;;;;;;;3.28;0.82;;;17.90;99.90;;;;;;5033529;28;20013;-70
2022/10/15 10:20:58;;;;;;;6.93;1.20;;;17.90;99.90;;;;;;5015557;28;20021;-70
2022/10/15 10:23:28;;;;;;;3.17;1.15;;;17.80;99.90;;;;;;5033831;28;20021;-69
2022/10/15 10:25:58;;;;;;;3.28;0.90;;;17.90;99.90;;;;;;5033592;28;20023;-70
2022/10/15 10:28:35;;;;;;;2.00;1.00;;;18.00;99.90;;;;;;5034107;28;20167;-70
2022/10/15 10:31:05;;;;;;;6.60;1.10;;;18.40;99.90;;;;;;5033846;28;20033;-69
2022/10/15 10:33:42;;;;;;;1.65;0.98;;;18.90;99.90;;;;;;5033475;28;20032;-69
2022/10/15 10:36:23;;;;;;;4.85;1.17;;;18.60;99.90;;;;;;5033370;28;20013;-69
2022/10/15 10:39:02;;;;;;;5.05;1.00;;;18.70;99.90;;;;;;5015868;28;20025;-69
2022/10/15 10:41:51;;;;;;;3.05;0.95;;;18.70;99.90;;;;;;5033473;28;20020;-68
2022/10/15 10:44:26;;;;;;;3.40;1.05;;;18.70;99.90;;;;;;5033326;28;20144;-69
2022/10/15 10:47:07;;;;;;;3.67;1.50;;;18.80;99.90;;;;;;5033353;28;20048;-70
2022/10/15 10:49:39;;;;;;;1.77;0.80;;;18.80;99.90;;;;;;5032397;28;20032;-69
2022/10/15 10:52:17;;;;;;;6.72;1.00;;;19.00;99.90;;;;;;5033071;28;20064;-69
2022/10/15 10:54:42;;;;;;;1.75;1.00;;;19.00;99.90;;;;;;5033606;28;20057;-70
2022/10/15 10:57:14;;;;;;;2.38;1.17;;;18.70;99.90;;;;;;5015504;28;20021;-70
2022/10/15 10:59:52;;;;;;;2.75;1.35;;;19.00;99.90;;;;;;5033452;28;20406;-70
2022/10/15 11:02:18;;;;;;;2.30;0.90;;;19.00;99.90;;;;;;5015881;28;20021;-69
2022/10/15 11:04:44;;;;;;;2.15;0.82;;;19.10;99.90;;;;;;5033666;28;20434;-69
2022/10/15 11:07:38;;;;;;;1.70;0.73;;;19.30;99.90;;;;;;5033128;28;20043;-69
2022/10/15 11:10:03;;;;;;;5.72;0.90;;;19.10;99.90;;;;;;5033104;28;20026;-69
2022/10/15 11:12:52;;;;;;;3.50;1.00;;;19.00;99.90;;;;;;5031737;28;20037;-70
2022/10/15 11:15:28;;;;;;;4.40;1.48;;;19.10;99.90;;;;;;5033031;28;20068;-69
2022/10/15 11:18:22;;;;;;;2.05;1.00;;;19.00;99.90;;;;;;5033322;28;20017;-69
2022/10/15 11:21:33;;;;;;;1.38;0.82;;;19.10;99.90;;;;;;5033002;28;20026;-69
2022/10/15 11:24:04;;;;;;;3.65;0.90;;;18.90;99.90;;;;;;5034751;28;20108;-69
2022/10/15 11:26:51;;;;;;;3.30;1.13;;;18.80;99.90;;;;;;5035773;28;20033;-69
2022/10/15 11:29:27;;;;;;;;;;;18.70;99.90;;;;;;5036141;28;20017;-70
2022/10/15 11:32:14;;;;;;;1.92;0.93;;;18.80;99.90;;;;;;5037099;28;19919;-68
2022/10/15 11:35:09;;;;;;;4.93;3.08;;;18.70;99.90;;;;;;5037089;28;20034;-68
2022/10/15 11:37:54;;;;;;;2.33;0.90;;;18.60;99.90;;;;;;5036855;28;20021;-68
2022/10/15 11:40:33;;;;;;;2.53;0.95;;;18.70;99.90;;;;;;5036990;28;20127;-69
2022/10/15 11:43:02;;;;;;;2.92;0.80;;;18.70;99.90;;;;;;5036441;28;20025;-69
2022/10/15 11:45:50;;;;;;;2.55;1.10;;;18.70;99.90;;;;;;5036764;28;20024;-69
2022/10/15 11:48:28;;;;;;;4.57;1.20;;;18.70;99.90;;;;;;5037007;28;20026;-69
2022/10/15 11:51:07;;;;;;;2.17;0.95;;;18.80;99.90;;;;;;5036498;28;20124;-68
2022/10/15 11:53:51;;;;;;;4.78;1.50;;;18.90;99.90;;;;;;5036336;28;20029;-69
2022/10/15 11:56:22;;;;;;;8.52;1.20;;;18.90;99.90;;;;;;5037083;28;20105;-69
2022/10/15 11:59:03;;;;;;;2.30;1.00;;;19.00;99.90;;;;;;5036330;28;20029;-68
2022/10/15 12:01:34;;;;;;;2.10;0.70;;;19.10;99.90;;;;;;5036381;28;20025;-68
2022/10/15 12:04:08;;;;;;;1.85;1.00;;;19.00;99.90;;;;;;5018631;28;20363;-68
2022/10/15 12:06:39;;;;;;;2.42;0.90;;;18.80;99.90;;;;;;5036412;28;20075;-68
2022/10/15 12:09:06;;;;;;;2.45;0.93;;;18.70;99.90;;;;;;5037256;28;20038;-68
2022/10/15 12:11:41;;;;;;;3.35;0.90;;;18.70;99.90;;;;;;5037596;28;20378;-68
2022/10/15 12:14:26;;;;;;;2.70;0.80;;;18.80;99.90;;;;;;5038003;28;20018;-68
2022/10/15 12:17:03;;;;;;;2.22;0.88;;;18.80;99.90;;;;;;5036293;28;20040;-69
2022/10/15 12:19:36;;;;;;;;;;;18.70;99.90;;;;;;5036551;28;20406;-69
2022/10/15 12:22:09;;;;;;;3.00;0.80;;;18.70;99.90;;;;;;5035687;28;19971;-68
2022/10/15 12:24:38;;;;;;;1.50;0.82;;;18.60;99.90;;;;;;5036518;28;20091;-70
2022/10/15 12:27:19;;;;;;;2.13;0.80;;;18.50;99.90;;;;;;5036647;28;20029;-70
2022/10/15 12:29:50;;;;;;;8.48;3.45;;;18.40;99.90;;;;;;5036164;28;20446;-69
2022/10/15 12:32:24;;;;;;;1.70;0.80;;;18.40;99.90;;;;;;5036279;28;20030;-69
2022/10/15 12:34:58;;;;;;;2.00;0.70;;;18.50;99.90;;;;;;5034825;28;20025;-71
2022/10/15 12:37:27;;;;;;;1.50;0.85;;;18.40;99.90;;;;;;5035444;28;20021;-70
2022/10/15 12:39:58;;;;;;;1.10;0.60;;;18.30;99.90;;;;;;5035953;28;20022;-69
2022/10/15 12:42:34;;;;;;;1.58;1.00;;;18.30;99.90;;;;;;5035681;28;20044;-69
2022/10/15 12:45:04;;;;;;;2.20;1.07;;;18.30;99.90;;;;;;5035527;28;20148;-70
2022/10/15 12:47:55;;;;;;;2.65;0.77;;;18.20;99.90;;;;;;5017775;28;20075;-70
2022/10/15 12:50:22;;;;;;;3.40;0.98;;;18.20;99.90;;;;;;5035470;28;20052;-69
2022/10/15 12:52:50;;;;;;;3.00;1.10;;;18.20;99.90;;;;;;5035133;28;20029;-70
2022/10/15 12:55:32;;;;;;;3.42;0.85;;;18.20;99.90;;;;;;5034377;28;20474;-69
2022/10/15 12:58:00;;;;;;;1.67;0.80;;;18.20;99.90;;;;;;5039931;28;20032;-70
2022/10/15 13:00:30;;;;;;;2.75;0.95;;;18.00;99.90;;;;;;5046630;28;20021;-70
2022/10/15 13:03:03;;;;;;;2.70;0.70;;;17.90;99.90;;;;;;5040722;28;20037;-69
2022/10/15 13:05:33;;;;;;;3.00;0.68;;;17.60;99.90;;;;;;5023411;28;20021;-69
2022/10/15 13:08:01;;;;;;;1.20;0.77;;;17.50;99.90;;;;;;5038735;28;20029;-69